createdAt,value
2019-03-11T00:01:29.517Z,34.60
2019-03-11T00:04:16.871Z,34.60
2019-03-11T00:07:03.193Z,34.60
2019-03-11T00:09:49.793Z,34.60
2019-03-11T00:12:36.206Z,34.60
2019-03-11T00:15:22.646Z,34.60
2019-03-11T00:18:08.882Z,34.60
2019-03-11T00:20:55.501Z,34.50
2019-03-11T00:23:41.771Z,34.60
2019-03-11T00:26:27.675Z,34.50
2019-03-11T00:29:13.636Z,34.60
2019-03-11T00:31:59.511Z,34.50
2019-03-11T00:34:45.731Z,34.60
2019-03-11T00:37:31.655Z,34.60
2019-03-11T00:40:17.891Z,34.60
2019-03-11T00:43:03.931Z,34.60
2019-03-11T00:45:50.286Z,34.70
2019-03-11T00:48:36.521Z,34.60
2019-03-11T00:51:23.367Z,34.50
2019-03-11T00:54:09.511Z,34.50
2019-03-11T00:56:55.851Z,34.40
2019-03-11T00:59:42.271Z,34.40
2019-03-11T01:02:29.768Z,34.30
2019-03-11T01:05:16.513Z,34.30
2019-03-11T01:08:02.938Z,34.20
2019-03-11T01:10:49.071Z,34.20
2019-03-11T01:13:36.460Z,34.20
2019-03-11T01:16:23.316Z,34.20
2019-03-11T01:19:09.604Z,34.20
2019-03-11T01:21:55.968Z,34.10
2019-03-11T01:24:42.382Z,34.20
2019-03-11T01:27:28.862Z,34.10
2019-03-11T01:30:15.244Z,34.20
2019-03-11T01:33:01.595Z,34.10
2019-03-11T01:35:49.011Z,34.00
2019-03-11T01:38:35.336Z,34.00
2019-03-11T01:41:21.944Z,34.10
2019-03-11T01:44:09.433Z,34.10
2019-03-11T01:46:55.823Z,34.00
2019-03-11T01:49:42.453Z,34.00
2019-03-11T01:52:28.655Z,34.10
2019-03-11T01:55:15.069Z,34.10
2019-03-11T01:58:01.531Z,34.10
2019-03-11T02:00:47.864Z,34.10
2019-03-11T02:03:34.193Z,34.10
2019-03-11T02:06:20.851Z,34.10
2019-03-11T02:09:10.949Z,34.10
2019-03-11T02:11:57.652Z,34.20
2019-03-11T02:14:44.075Z,34.20
2019-03-11T02:17:31.796Z,34.10
2019-03-11T02:20:18.035Z,34.20
2019-03-11T02:23:05.636Z,34.10
2019-03-11T02:25:51.635Z,34.20
2019-03-11T02:28:38.421Z,34.10
2019-03-11T02:31:24.697Z,34.10
2019-03-11T02:34:11.150Z,34.10
2019-03-11T02:36:57.392Z,34.10
2019-03-11T02:39:44.080Z,34.10
2019-03-11T02:42:30.361Z,34.20
2019-03-11T02:45:16.621Z,34.10
2019-03-11T02:48:02.858Z,34.10
2019-03-11T02:50:48.774Z,34.10
2019-03-11T02:53:35.108Z,34.20
2019-03-11T02:56:21.937Z,34.10
2019-03-11T02:59:08.272Z,34.10
2019-03-11T03:02:02.953Z,34.00
2019-03-11T03:05:00.445Z,34.00
2019-03-11T03:07:46.420Z,34.00
2019-03-11T03:10:32.665Z,34.00
2019-03-11T03:13:19.208Z,33.90
2019-03-11T03:16:05.339Z,33.90
2019-03-11T03:18:51.881Z,34.00
2019-03-11T03:21:38.390Z,33.90
2019-03-11T03:24:25.216Z,33.90
2019-03-11T03:27:11.461Z,33.90
2019-03-11T03:29:58.425Z,33.90
2019-03-11T03:32:44.717Z,33.90
2019-03-11T03:35:31.108Z,33.90
2019-03-11T03:38:29.541Z,33.80
2019-03-11T03:41:05.476Z,33.90
2019-03-11T03:43:51.772Z,34.00
2019-03-11T03:46:38.685Z,33.90
2019-03-11T03:49:25.008Z,33.90
2019-03-11T03:52:11.478Z,33.90
2019-03-11T03:54:57.936Z,33.90
2019-03-11T03:57:44.266Z,34.00
2019-03-11T04:00:30.570Z,33.90
2019-03-11T04:03:17.020Z,33.90
2019-03-11T04:06:03.184Z,33.90
2019-03-11T04:08:49.767Z,34.00
2019-03-11T04:11:36.197Z,33.90
2019-03-11T04:14:22.831Z,33.90
2019-03-11T04:17:09.195Z,34.00
2019-03-11T04:19:55.095Z,33.90
2019-03-11T04:22:41.483Z,34.00
2019-03-11T04:25:29.906Z,34.00
2019-03-11T04:28:15.776Z,34.00
2019-03-11T04:31:01.999Z,34.00
2019-03-11T04:33:48.244Z,34.00
2019-03-11T04:36:34.245Z,34.00
2019-03-11T04:39:19.995Z,34.00
2019-03-11T04:42:06.555Z,34.00
2019-03-11T04:44:52.786Z,34.00
2019-03-11T04:47:39.027Z,34.00
2019-03-11T04:50:24.831Z,34.00
2019-03-11T04:53:10.835Z,34.00
2019-03-11T04:55:56.616Z,34.10
2019-03-11T04:58:42.861Z,34.00
2019-03-11T05:01:29.202Z,34.10
2019-03-11T05:04:15.604Z,34.10
2019-03-11T05:07:02.161Z,34.10
2019-03-11T05:09:48.524Z,34.10
2019-03-11T05:12:34.828Z,34.00
2019-03-11T05:15:21.012Z,34.00
2019-03-11T05:18:07.444Z,34.00
2019-03-11T05:20:53.496Z,33.90
2019-03-11T05:23:39.716Z,33.80
2019-03-11T05:26:26.672Z,33.80
2019-03-11T05:29:16.056Z,33.80
2019-03-11T05:32:03.459Z,33.80
2019-03-11T05:34:49.759Z,33.80
2019-03-11T05:37:36.428Z,33.70
2019-03-11T05:40:22.526Z,33.80
2019-03-11T05:43:08.980Z,33.80
2019-03-11T05:45:55.431Z,33.80
2019-03-11T05:48:42.142Z,33.70
2019-03-11T05:51:31.814Z,33.70
2019-03-11T05:54:16.505Z,33.70
2019-03-11T05:57:02.688Z,33.70
2019-03-11T05:59:49.094Z,33.70
2019-03-11T06:02:36.530Z,33.70
2019-03-11T06:05:22.717Z,33.70
2019-03-11T06:08:17.836Z,33.60
2019-03-11T06:11:03.945Z,33.50
2019-03-11T06:13:50.237Z,33.20
2019-03-11T06:16:37.055Z,32.90
2019-03-11T06:19:23.316Z,32.60
2019-03-11T06:22:22.228Z,32.40
2019-03-11T06:25:08.444Z,32.40
2019-03-11T06:27:55.024Z,32.40
2019-03-11T06:30:40.997Z,32.40
2019-03-11T06:33:27.263Z,32.30
2019-03-11T06:36:13.471Z,32.40
2019-03-11T06:39:05.783Z,32.20
2019-03-11T06:41:49.810Z,32.00
2019-03-11T06:44:36.534Z,31.80
2019-03-11T06:47:23.127Z,31.60
2019-03-11T06:50:09.516Z,31.50
2019-03-11T06:52:55.803Z,31.30
2019-03-11T06:55:41.815Z,31.10
2019-03-11T06:58:27.531Z,30.90
2019-03-11T07:01:14.825Z,30.80
2019-03-11T07:04:01.317Z,30.50
2019-03-11T07:06:47.939Z,30.20
2019-03-11T07:09:33.680Z,30.00
2019-03-11T07:12:20.538Z,29.70
2019-03-11T07:15:07.671Z,29.60
2019-03-11T07:17:54.531Z,29.40
2019-03-11T07:20:40.830Z,29.40
2019-03-11T07:23:27.151Z,29.30
2019-03-11T07:26:13.627Z,29.20
2019-03-11T07:29:00.287Z,29.20
2019-03-11T07:31:45.979Z,29.00
2019-03-11T07:34:33.060Z,29.00
2019-03-11T07:37:19.368Z,28.80
2019-03-11T07:40:05.706Z,28.90
2019-03-11T07:42:51.988Z,28.80
2019-03-11T07:45:38.222Z,28.80
2019-03-11T07:48:24.748Z,28.80
2019-03-11T07:51:10.817Z,28.60
2019-03-11T07:53:56.993Z,28.60
2019-03-11T07:56:44.439Z,28.40
2019-03-11T07:59:30.751Z,28.30
2019-03-11T08:02:18.356Z,28.10
2019-03-11T08:05:06.103Z,28.00
2019-03-11T08:07:52.261Z,27.80
2019-03-11T08:10:38.668Z,27.80
2019-03-11T08:13:24.932Z,27.60
2019-03-11T08:16:11.269Z,27.60
2019-03-11T08:18:57.702Z,27.50
2019-03-11T08:21:43.964Z,27.40
2019-03-11T08:24:30.016Z,27.30
2019-03-11T08:27:15.823Z,27.40
2019-03-11T08:30:01.902Z,27.40
2019-03-11T08:32:50.474Z,27.50
2019-03-11T08:35:36.568Z,27.80
2019-03-11T08:38:22.892Z,28.10
2019-03-11T08:41:09.727Z,28.20
2019-03-11T08:43:56.004Z,28.40
2019-03-11T08:46:44.563Z,28.40
2019-03-11T08:49:30.372Z,28.40
2019-03-11T08:52:16.987Z,28.20
2019-03-11T08:55:04.107Z,28.00
2019-03-11T08:57:51.603Z,27.90
2019-03-11T09:00:37.904Z,27.70
2019-03-11T09:03:23.954Z,27.70
2019-03-11T09:06:09.940Z,27.60
2019-03-11T09:08:56.628Z,27.60
2019-03-11T09:11:42.967Z,27.60
2019-03-11T09:14:29.632Z,27.50
2019-03-11T09:17:15.370Z,27.40
2019-03-11T09:20:03.131Z,27.30
2019-03-11T09:22:49.220Z,27.20
2019-03-11T09:25:35.451Z,27.20
2019-03-11T09:28:21.838Z,27.20
2019-03-11T09:31:08.600Z,27.10
2019-03-11T09:33:54.920Z,27.20
2019-03-11T09:36:41.364Z,27.30
2019-03-11T09:39:27.768Z,27.40
2019-03-11T09:42:14.159Z,27.50
2019-03-11T09:45:00.488Z,27.60
2019-03-11T09:47:47.308Z,27.70
2019-03-11T09:50:33.530Z,27.80
2019-03-11T09:53:20.084Z,27.90
2019-03-11T09:56:06.396Z,28.00
2019-03-11T09:58:52.479Z,28.20
2019-03-11T10:01:40.376Z,28.30
2019-03-11T10:04:26.875Z,28.20
2019-03-11T10:07:13.062Z,28.30
2019-03-11T10:09:59.459Z,28.40
2019-03-11T10:12:45.264Z,28.40
2019-03-11T10:15:31.495Z,28.60
2019-03-11T10:18:17.975Z,28.60
2019-03-11T10:21:05.536Z,28.70
2019-03-11T10:23:51.828Z,28.70
2019-03-11T10:26:38.127Z,28.70
2019-03-11T10:29:24.468Z,28.70
2019-03-11T10:32:10.851Z,28.70
2019-03-11T10:34:57.437Z,28.70
2019-03-11T10:37:43.816Z,28.80
2019-03-11T10:40:30.421Z,28.90
2019-03-11T10:43:17.090Z,28.90
2019-03-11T10:46:03.427Z,29.00
2019-03-11T10:48:50.040Z,29.20
2019-03-11T10:51:36.615Z,29.20
2019-03-11T10:54:23.511Z,29.30
2019-03-11T10:57:09.836Z,29.40
2019-03-11T10:59:56.423Z,29.50
2019-03-11T11:02:42.704Z,29.60
2019-03-11T11:05:29.049Z,29.70
2019-03-11T11:08:15.588Z,29.70
2019-03-11T11:11:02.547Z,29.80
2019-03-11T11:13:48.819Z,29.80
2019-03-11T11:16:35.291Z,30.00
2019-03-11T11:19:21.577Z,30.00
2019-03-11T11:22:08.166Z,30.00
2019-03-11T11:24:54.087Z,30.00
2019-03-11T11:27:40.352Z,30.00
2019-03-11T11:30:28.497Z,30.10
2019-03-11T11:33:14.759Z,30.10
2019-03-11T11:36:00.934Z,30.20
2019-03-11T11:38:47.587Z,30.20
2019-03-11T11:41:33.355Z,30.30
2019-03-11T11:44:19.992Z,30.40
2019-03-11T11:47:06.242Z,30.40
2019-03-11T11:49:52.696Z,30.60
2019-03-11T11:52:39.043Z,30.50
2019-03-11T11:55:25.438Z,30.60
2019-03-11T11:58:11.609Z,30.60
2019-03-11T12:00:58.011Z,30.60
2019-03-11T12:03:44.047Z,30.70
2019-03-11T12:06:30.407Z,30.80
2019-03-11T12:09:16.735Z,30.80
2019-03-11T12:12:03.083Z,30.80
2019-03-11T12:14:49.325Z,30.80
2019-03-11T12:17:35.727Z,30.90
2019-03-11T12:20:24.346Z,30.90
2019-03-11T12:23:10.360Z,30.90
2019-03-11T12:25:56.775Z,30.90
2019-03-11T12:28:43.447Z,31.00
2019-03-11T12:31:29.211Z,30.90
2019-03-11T12:34:15.624Z,31.00
2019-03-11T12:37:01.974Z,31.10
2019-03-11T12:39:48.365Z,31.10
2019-03-11T12:42:34.667Z,31.20
2019-03-11T12:45:20.999Z,31.10
2019-03-11T12:48:07.416Z,31.20
2019-03-11T12:50:53.735Z,31.10
2019-03-11T12:53:40.077Z,31.30
2019-03-11T12:56:26.488Z,31.30
2019-03-11T12:59:12.884Z,30.90
2019-03-11T13:01:59.325Z,31.30
2019-03-11T13:04:45.508Z,31.40
2019-03-11T13:07:32.097Z,31.40
2019-03-11T13:10:19.300Z,31.40
2019-03-11T13:13:05.224Z,31.50
2019-03-11T13:15:51.563Z,31.50
2019-03-11T13:18:40.847Z,31.50
2019-03-11T13:21:28.983Z,31.60
2019-03-11T13:24:15.535Z,31.60
2019-03-11T13:27:01.756Z,31.60
2019-03-11T13:29:48.404Z,31.70
2019-03-11T13:32:34.803Z,31.70
2019-03-11T13:35:21.203Z,32.40
2019-03-11T13:38:08.815Z,31.80
2019-03-11T13:40:55.096Z,31.90
2019-03-11T13:43:41.415Z,32.00
2019-03-11T13:46:27.772Z,32.00
2019-03-11T13:49:14.037Z,32.00
2019-03-11T13:52:00.476Z,32.00
2019-03-11T13:54:46.904Z,32.10
2019-03-11T13:57:33.423Z,32.20
2019-03-11T14:00:19.757Z,32.30
2019-03-11T14:03:06.105Z,32.30
2019-03-11T14:05:52.861Z,32.40
2019-03-11T14:08:38.959Z,32.40
2019-03-11T14:11:25.245Z,32.60
2019-03-11T14:14:11.873Z,32.60
2019-03-11T14:16:58.161Z,32.70
2019-03-11T14:19:44.883Z,32.70
2019-03-11T14:22:31.240Z,32.90
2019-03-11T14:25:17.599Z,32.90
2019-03-11T14:28:03.638Z,32.90
2019-03-11T14:30:49.898Z,33.20
2019-03-11T14:33:35.930Z,33.00
2019-03-11T14:36:22.684Z,32.50
2019-03-11T14:39:09.069Z,32.70
2019-03-11T14:41:56.204Z,33.00
2019-03-11T14:44:41.955Z,33.10
2019-03-11T14:47:28.267Z,33.10
2019-03-11T14:50:15.687Z,33.20
2019-03-11T14:53:02.103Z,33.30
2019-03-11T14:55:49.675Z,33.30
2019-03-11T14:58:36.164Z,33.40
2019-03-11T15:01:22.039Z,33.40
2019-03-11T15:04:10.501Z,33.40
2019-03-11T15:06:56.464Z,33.50
2019-03-11T15:09:51.091Z,33.60
2019-03-11T15:12:30.608Z,33.60
2019-03-11T15:15:17.497Z,33.70
2019-03-11T15:18:03.752Z,33.70
2019-03-11T15:20:50.450Z,33.70
2019-03-11T15:23:36.396Z,33.70
2019-03-11T15:26:25.332Z,33.70
2019-03-11T15:29:10.807Z,33.70
2019-03-11T15:31:57.702Z,33.70
2019-03-11T15:34:43.827Z,33.70
2019-03-11T15:37:30.743Z,33.70
2019-03-11T15:40:16.566Z,33.80
2019-03-11T15:43:02.885Z,33.70
2019-03-11T15:45:49.129Z,33.70
2019-03-11T15:48:35.598Z,33.70
2019-03-11T15:51:21.968Z,33.60
2019-03-11T15:54:08.350Z,33.60
2019-03-11T15:56:54.959Z,33.60
2019-03-11T15:59:41.215Z,33.60
2019-03-11T16:02:27.529Z,33.60
2019-03-11T16:05:15.102Z,33.60
2019-03-11T16:08:02.768Z,33.60
2019-03-11T16:10:49.407Z,33.50
2019-03-11T16:13:35.787Z,33.20
2019-03-11T16:16:23.315Z,33.50
2019-03-11T16:19:09.429Z,33.50
2019-03-11T16:21:56.023Z,33.50
2019-03-11T16:24:42.248Z,33.40
2019-03-11T16:27:29.039Z,33.40
2019-03-11T16:30:17.200Z,33.50
2019-03-11T16:33:03.457Z,33.30
2019-03-11T16:35:49.722Z,33.30
2019-03-11T16:38:36.040Z,33.30
2019-03-11T16:41:21.938Z,33.30
2019-03-11T16:44:09.627Z,33.30
2019-03-11T16:46:55.947Z,33.20
2019-03-11T16:49:42.370Z,33.20
2019-03-11T16:52:28.655Z,33.20
2019-03-11T16:55:16.847Z,33.20
2019-03-11T16:58:02.904Z,33.20
2019-03-11T17:00:50.014Z,33.30
2019-03-11T17:03:36.035Z,33.30
2019-03-11T17:06:22.260Z,33.20
2019-03-11T17:09:09.652Z,33.20
2019-03-11T17:11:57.948Z,33.20
2019-03-11T17:14:45.453Z,33.20
2019-03-11T17:17:32.571Z,33.20
2019-03-11T17:20:19.250Z,33.20
2019-03-11T17:23:05.791Z,33.20
2019-03-11T17:25:51.964Z,33.20
2019-03-11T17:28:38.515Z,33.20
2019-03-11T17:31:24.823Z,33.20
2019-03-11T17:34:11.613Z,33.20
2019-03-11T17:36:57.943Z,33.20
2019-03-11T17:39:44.616Z,33.20
2019-03-11T17:42:30.829Z,33.10
2019-03-11T17:45:17.928Z,33.10
2019-03-11T17:48:03.919Z,33.10
2019-03-11T17:50:50.388Z,33.10
2019-03-11T17:53:36.684Z,33.10
2019-03-11T17:56:23.212Z,33.10
2019-03-11T17:59:09.729Z,33.10
2019-03-11T18:01:57.279Z,33.20
2019-03-11T18:04:43.559Z,33.20
2019-03-11T18:07:30.227Z,33.10
2019-03-11T18:10:16.303Z,33.10
2019-03-11T18:13:02.989Z,33.00
2019-03-11T18:15:49.548Z,33.10
2019-03-11T18:18:36.004Z,33.00
2019-03-11T18:21:22.345Z,33.00
2019-03-11T18:24:09.013Z,33.00
2019-03-11T18:26:55.359Z,33.00
2019-03-11T18:29:41.914Z,33.00
2019-03-11T18:32:28.212Z,32.90
2019-03-11T18:35:14.659Z,32.90
2019-03-11T18:38:04.366Z,33.00
2019-03-11T18:40:48.737Z,32.90
2019-03-11T18:43:42.688Z,33.00
2019-03-11T18:46:24.439Z,32.80
2019-03-11T18:49:10.911Z,32.80
2019-03-11T18:51:57.471Z,32.80
2019-03-11T18:54:43.633Z,32.80
2019-03-11T18:57:30.155Z,32.80
2019-03-11T19:00:17.193Z,32.80
2019-03-11T19:03:03.662Z,32.80
2019-03-11T19:05:50.155Z,32.80
2019-03-11T19:08:36.487Z,32.70
2019-03-11T19:11:22.784Z,32.70
2019-03-11T19:14:09.418Z,32.70
2019-03-11T19:16:55.620Z,32.60
2019-03-11T19:19:45.957Z,32.60
2019-03-11T19:22:29.594Z,32.60
2019-03-11T19:25:16.537Z,32.60
2019-03-11T19:28:02.797Z,32.60
2019-03-11T19:30:49.832Z,32.50
2019-03-11T19:33:35.845Z,32.60
2019-03-11T19:36:22.324Z,32.50
2019-03-11T19:39:13.028Z,32.50
2019-03-11T19:42:00.146Z,32.50
2019-03-11T19:44:47.664Z,32.50
2019-03-11T19:47:34.291Z,32.50
2019-03-11T19:50:20.980Z,32.50
2019-03-11T19:53:07.019Z,32.40
2019-03-11T19:55:53.521Z,32.40
2019-03-11T19:58:39.847Z,32.40
2019-03-11T20:01:26.478Z,32.30
2019-03-11T20:04:13.312Z,32.40
2019-03-11T20:06:59.661Z,32.40
2019-03-11T20:09:45.993Z,32.40
2019-03-11T20:12:32.450Z,32.30
2019-03-11T20:15:18.614Z,32.30
2019-03-11T20:18:04.883Z,32.20
2019-03-11T20:20:51.595Z,32.20
2019-03-11T20:23:38.830Z,32.30
2019-03-11T20:26:25.212Z,32.20
2019-03-11T20:29:11.663Z,32.20
2019-03-11T20:31:58.753Z,32.20
2019-03-11T20:34:45.019Z,32.20
2019-03-11T20:37:31.714Z,32.20
2019-03-11T20:40:18.027Z,32.60
2019-03-11T20:43:04.234Z,32.30
2019-03-11T20:45:50.811Z,32.20
2019-03-11T20:48:37.184Z,32.10
2019-03-11T20:51:23.329Z,32.20
2019-03-11T20:54:09.613Z,32.10
2019-03-11T20:56:55.851Z,32.10
2019-03-11T20:59:42.246Z,32.10
2019-03-11T21:02:28.420Z,32.10
2019-03-11T21:05:18.734Z,32.10
2019-03-11T21:08:07.544Z,32.20
2019-03-11T21:10:54.055Z,32.10
2019-03-11T21:13:40.585Z,32.10
2019-03-11T21:16:27.048Z,32.10
2019-03-11T21:19:13.492Z,32.10
2019-03-11T21:22:00.417Z,32.10
2019-03-11T21:24:55.531Z,32.00
2019-03-11T21:27:35.015Z,32.00
2019-03-11T21:30:21.485Z,32.00
2019-03-11T21:33:07.849Z,31.90
2019-03-11T21:35:54.204Z,32.00
2019-03-11T21:38:42.059Z,31.90
2019-03-11T21:41:28.410Z,32.00
2019-03-11T21:44:14.576Z,31.90
2019-03-11T21:47:01.122Z,31.90
2019-03-11T21:49:48.472Z,31.90
2019-03-11T21:52:34.647Z,31.90
2019-03-11T21:55:21.441Z,31.90
2019-03-11T21:58:13.177Z,31.90
2019-03-11T22:00:55.270Z,31.90
2019-03-11T22:03:42.979Z,31.90
2019-03-11T22:06:30.781Z,31.90
2019-03-11T22:09:17.041Z,31.80
2019-03-11T22:12:03.919Z,31.90
2019-03-11T22:14:50.175Z,31.90
2019-03-11T22:17:36.073Z,31.90
2019-03-11T22:20:22.471Z,31.80
2019-03-11T22:23:08.736Z,31.80
2019-03-11T22:25:55.072Z,31.80
2019-03-11T22:28:41.734Z,31.80
2019-03-11T22:31:27.905Z,31.80
2019-03-11T22:34:14.750Z,31.80
2019-03-11T22:37:01.227Z,32.40
2019-03-11T22:39:47.748Z,31.80
2019-03-11T22:42:34.008Z,31.80
2019-03-11T22:45:20.941Z,31.80
2019-03-11T22:48:07.388Z,31.80
2019-03-11T22:50:53.780Z,31.80
2019-03-11T22:53:40.118Z,31.80
2019-03-11T22:56:26.604Z,31.70
2019-03-11T22:59:12.439Z,31.80
2019-03-11T23:01:58.225Z,31.80
2019-03-11T23:04:44.600Z,31.80
2019-03-11T23:07:31.104Z,31.80
2019-03-11T23:10:17.331Z,31.70
2019-03-11T23:13:03.837Z,31.80
2019-03-11T23:15:50.110Z,31.80
2019-03-11T23:18:36.819Z,31.80
2019-03-11T23:21:23.160Z,31.80
2019-03-11T23:24:09.296Z,31.70
2019-03-11T23:26:55.460Z,31.70
2019-03-11T23:29:41.467Z,31.70
2019-03-11T23:32:27.839Z,31.70
2019-03-11T23:35:14.776Z,31.70
2019-03-11T23:38:03.274Z,31.70
2019-03-11T23:40:49.883Z,31.70
2019-03-11T23:43:36.232Z,31.70
2019-03-11T23:46:22.152Z,31.80
2019-03-11T23:49:08.579Z,31.80
2019-03-11T23:51:55.036Z,31.70
2019-03-11T23:54:41.401Z,31.80
2019-03-11T23:57:27.792Z,31.70
